createdAt,value
2019-02-10T00:14:20.264Z,13.8
2019-02-10T00:19:28.684Z,13.8
2019-02-10T00:24:37.152Z,13.8
2019-02-10T00:29:45.567Z,13.7
2019-02-10T00:34:54.018Z,13.8
2019-02-10T00:45:10.890Z,13.6
2019-02-10T00:55:27.825Z,13.7
2019-02-10T01:00:36.712Z,13.6
2019-02-10T01:05:44.737Z,13.6
2019-02-10T01:16:01.541Z,13.5
2019-02-10T01:26:18.561Z,13.5
2019-02-10T01:46:52.434Z,13.5
2019-02-10T01:52:00.936Z,13.4
2019-02-10T01:57:09.274Z,13.4
2019-02-10T02:07:26.156Z,13.3
2019-02-10T02:12:34.560Z,13.4
2019-02-10T02:17:42.997Z,13.5
2019-02-10T02:27:59.897Z,13.6
2019-02-10T02:38:16.820Z,13.6
2019-02-10T02:53:42.149Z,13.3
2019-02-10T02:58:50.525Z,13.1
2019-02-10T03:03:58.959Z,13
2019-02-10T03:09:07.552Z,12.9
2019-02-10T03:14:15.938Z,12.8
2019-02-10T03:29:41.504Z,12.5
2019-02-10T03:39:58.383Z,12.3
2019-02-10T03:50:15.465Z,12.1
2019-02-10T03:55:23.954Z,12.1
2019-02-10T04:00:32.602Z,12.1
2019-02-10T04:10:49.558Z,11.9
2019-02-10T04:15:58.136Z,11.8
2019-02-10T04:21:06.714Z,11.8
2019-02-10T04:31:23.856Z,11.6
2019-02-10T04:41:40.995Z,11.6
2019-02-10T04:51:57.988Z,11.5
2019-02-10T05:12:32.425Z,11.3
2019-02-10T05:17:40.848Z,11.2
2019-02-10T05:22:49.435Z,11.2
2019-02-10T05:33:06.719Z,11
2019-02-10T05:43:23.912Z,11
2019-02-10T05:53:41.260Z,10.9
2019-02-10T06:03:58.419Z,10.8
2019-02-10T06:24:32.899Z,10.8
2019-02-10T06:34:50.230Z,10.8
2019-02-10T06:55:24.562Z,10.8
2019-02-10T07:26:16.337Z,11.2
2019-02-10T07:36:33.510Z,11.5
2019-02-10T07:46:50.698Z,11.6
2019-02-10T07:57:07.881Z,11.9
2019-02-10T08:02:16.431Z,12
2019-02-10T08:07:24.885Z,12
2019-02-10T08:12:33.580Z,12.1
2019-02-10T08:17:41.976Z,12.3
2019-02-10T08:22:50.626Z,12.5
2019-02-10T08:33:07.478Z,12.6
2019-02-10T08:38:16.026Z,12.7
2019-02-10T08:48:32.979Z,12.9
2019-02-10T08:53:41.340Z,13
2019-02-10T08:58:49.816Z,13
2019-02-10T09:03:58.283Z,13.1
2019-02-10T09:19:23.542Z,13.4
2019-02-10T09:24:31.999Z,13.3
2019-02-10T09:29:40.410Z,13.6
2019-02-10T09:34:48.845Z,13.8
2019-02-10T09:39:57.265Z,13.8
2019-02-10T09:50:14.076Z,13.9
2019-02-10T09:55:22.473Z,13.9
2019-02-10T10:05:39.289Z,14
2019-02-10T10:21:04.550Z,14.2
2019-02-10T10:31:21.266Z,14.3
2019-02-10T10:36:29.966Z,14.3
2019-02-10T10:57:03.207Z,14.4
2019-02-10T11:02:11.520Z,14.5
2019-02-10T11:07:19.899Z,14.5
2019-02-10T11:12:28.308Z,14.6
2019-02-10T11:22:45.078Z,14.6
2019-02-10T11:27:53.386Z,14.6
2019-02-10T11:33:01.823Z,14.6
2019-02-10T11:38:10.068Z,14.6
2019-02-10T11:43:18.546Z,14.8
2019-02-10T11:58:43.600Z,14.9
2019-02-10T12:03:51.880Z,14.9
2019-02-10T12:14:08.744Z,15
2019-02-10T12:19:17.070Z,15.1
2019-02-10T12:24:25.342Z,15.2
2019-02-10T12:29:33.691Z,15.2
2019-02-10T12:34:41.934Z,15.3
2019-02-10T12:39:50.330Z,15.3
2019-02-10T12:44:58.594Z,15.3
2019-02-10T12:55:15.226Z,15.3
2019-02-10T13:00:23.535Z,15.4
2019-02-10T13:05:31.856Z,15.4
2019-02-10T13:10:40.176Z,15.7
2019-02-10T13:15:48.476Z,15.8
2019-02-10T13:20:56.764Z,15.8
2019-02-10T13:41:30.020Z,15.9
2019-02-10T13:46:38.265Z,15.9
2019-02-10T13:51:46.775Z,16
2019-02-10T13:56:54.832Z,16.1
2019-02-10T14:02:03.199Z,16.1
2019-02-10T14:07:11.635Z,16.1
2019-02-10T14:12:19.688Z,16.1
2019-02-10T14:17:28.016Z,16.2
2019-02-10T14:32:52.790Z,16.3
2019-02-10T14:38:01.279Z,16.2
2019-02-10T14:48:17.662Z,16.3
2019-02-10T14:58:34.122Z,16.3
2019-02-10T15:03:42.442Z,16.3
2019-02-10T15:08:50.718Z,16.2
2019-02-10T15:13:58.982Z,16.2
2019-02-10T15:24:15.531Z,16.1
2019-02-10T15:29:23.780Z,16.1
2019-02-10T15:39:40.338Z,16.1
2019-02-10T15:49:56.992Z,15.8
2019-02-10T15:55:07.934Z,15.9
2019-02-10T16:05:21.808Z,15.4
2019-02-10T16:10:30.192Z,15.3
2019-02-10T16:15:38.487Z,15
2019-02-10T16:20:46.931Z,14.7
2019-02-10T16:25:55.280Z,14.6
2019-02-10T16:31:03.629Z,14.4
2019-02-10T16:41:20.355Z,13.9
2019-02-10T16:46:28.910Z,13.8
2019-02-10T16:51:37.167Z,13.6
2019-02-10T16:56:45.690Z,13.4
2019-02-10T17:07:02.633Z,13.2
2019-02-10T17:12:11.000Z,13.2
2019-02-10T17:17:19.471Z,13.2
2019-02-10T17:22:28.013Z,13
2019-02-10T17:32:44.984Z,13
2019-02-10T17:37:53.396Z,12.8
2019-02-10T17:43:01.921Z,12.8
2019-02-10T17:48:10.415Z,12.7
2019-02-10T17:53:18.938Z,12.7
2019-02-10T17:58:27.397Z,12.5
2019-02-10T18:03:35.991Z,12.5
2019-02-10T18:08:44.385Z,12.3
2019-02-10T18:13:52.919Z,12.2
2019-02-10T18:19:01.422Z,12.1
2019-02-10T18:24:10.000Z,12
2019-02-10T18:29:18.698Z,11.9
2019-02-10T18:34:27.156Z,11.7
2019-02-10T18:39:35.696Z,11.5
2019-02-10T18:49:52.907Z,11
2019-02-10T18:55:01.625Z,10.8
2019-02-10T19:00:10.163Z,10.7
2019-02-10T19:05:18.810Z,10.5
2019-02-10T19:10:27.457Z,10.5
2019-02-10T19:15:36.155Z,10.3
2019-02-10T19:20:44.766Z,10.2
2019-02-10T19:25:53.502Z,10
2019-02-10T19:31:02.111Z,9.9
2019-02-10T19:36:10.770Z,9.8
2019-02-10T19:41:19.485Z,9.7
2019-02-10T19:46:28.213Z,9.7
2019-02-10T19:51:36.918Z,9.4
2019-02-10T19:56:45.755Z,9.4
2019-02-10T20:01:54.405Z,9.2
2019-02-10T20:07:03.250Z,9.1
2019-02-10T20:12:11.968Z,9.1
2019-02-10T20:17:20.649Z,9
2019-02-10T20:22:29.388Z,9.1
2019-02-10T20:32:47.019Z,9
2019-02-10T20:37:55.722Z,8.9
2019-02-10T20:43:04.626Z,8.9
2019-02-10T20:48:13.282Z,8.9
2019-02-10T20:53:22.040Z,8.7
2019-02-10T20:58:30.905Z,8.8
2019-02-10T21:03:39.608Z,8.9
2019-02-10T21:08:48.390Z,8.7
2019-02-10T21:19:05.964Z,8.7
2019-02-10T21:24:14.875Z,8.6
2019-02-10T21:34:32.410Z,8.6
2019-02-10T21:39:41.081Z,8.5
2019-02-10T21:44:49.912Z,8.5
2019-02-10T21:49:58.715Z,8.5
2019-02-10T21:55:07.490Z,8.3
2019-02-10T22:00:16.369Z,8.4
2019-02-10T22:05:25.034Z,8.3
2019-02-10T22:15:42.659Z,8.1
2019-02-10T22:20:51.426Z,8.1
2019-02-10T22:31:09.129Z,8.1
2019-02-10T22:36:17.931Z,8.1
2019-02-10T22:41:26.674Z,8.1
2019-02-10T22:46:35.502Z,8.1
2019-02-10T22:51:44.384Z,8.1
2019-02-10T23:02:01.970Z,8.1
2019-02-10T23:07:10.794Z,8.1
2019-02-10T23:12:19.609Z,8
2019-02-10T23:17:28.535Z,8
2019-02-10T23:22:37.197Z,8.1
2019-02-10T23:27:46.066Z,8.1
2019-02-10T23:32:54.826Z,8.1
2019-02-10T23:38:03.607Z,8.2
2019-02-10T23:43:12.429Z,8.1
2019-02-10T23:48:21.218Z,8.2
2019-02-10T23:58:38.879Z,8.3
